createdAt,value
2018-06-27T00:01:00.893Z,94660.44
2018-06-27T00:03:31.728Z,94658.62
2018-06-27T00:06:01.997Z,94656.17
2018-06-27T00:08:32.442Z,94652.73
2018-06-27T00:11:03.226Z,94655.19
2018-06-27T00:13:33.618Z,94647.71
2018-06-27T00:16:03.948Z,94649.73
2018-06-27T00:18:34.544Z,94641.64
2018-06-27T00:21:05.156Z,94641.98
2018-06-27T00:23:36.055Z,94641.32
2018-06-27T00:26:06.441Z,94629.41
2018-06-27T00:28:36.757Z,94623.17
2018-06-27T00:31:07.434Z,94625.98
2018-06-27T00:33:37.849Z,94619.70
2018-06-27T00:36:08.242Z,94614.77
2018-06-27T00:38:38.766Z,94612.19
2018-06-27T00:41:09.309Z,94602.09
2018-06-27T00:43:39.926Z,94602.22
2018-06-27T00:46:10.373Z,94600.10
2018-06-27T00:48:40.799Z,94601.02
2018-06-27T00:51:11.230Z,94599.09
2018-06-27T00:53:47.708Z,94604.69
2018-06-27T00:56:18.133Z,94608.17
2018-06-27T00:58:48.657Z,94610.19
2018-06-27T01:01:19.135Z,94605.34
2018-06-27T01:03:50.180Z,94606.84
2018-06-27T01:06:20.603Z,94602.70
2018-06-27T01:08:50.827Z,94602.48
2018-06-27T01:11:21.362Z,94594.59
2018-06-27T01:13:52.622Z,94583.48
2018-06-27T01:16:23.567Z,94588.74
2018-06-27T01:18:54.110Z,94587.36
2018-06-27T01:21:25.013Z,94587.95
2018-06-27T01:23:55.384Z,94589.52
2018-06-27T01:26:26.028Z,94587.80
2018-06-27T01:28:56.555Z,94584.41
2018-06-27T01:31:26.918Z,94578.79
2018-06-27T01:33:57.767Z,94577.77
2018-06-27T01:36:28.316Z,94580.13
2018-06-27T01:38:59.075Z,94585.50
2018-06-27T01:41:29.349Z,94588.55
2018-06-27T01:44:00.815Z,94580.05
2018-06-27T01:46:31.468Z,94569.75
2018-06-27T01:49:01.651Z,94579.23
2018-06-27T01:51:32.269Z,94577.72
2018-06-27T01:54:03.778Z,94572.67
2018-06-27T01:56:34.264Z,94562.25
2018-06-27T01:59:04.563Z,94566.74
2018-06-27T02:01:34.848Z,94566.63
2018-06-27T02:04:06.966Z,94566.81
2018-06-27T02:06:37.601Z,94571.84
2018-06-27T02:09:10.573Z,94564.80
2018-06-27T02:11:41.025Z,94571.20
2018-06-27T02:14:11.995Z,94566.63
2018-06-27T02:16:42.476Z,94563.11
2018-06-27T02:19:12.909Z,94537.95
2018-06-27T02:21:43.584Z,94563.88
2018-06-27T02:24:14.445Z,94562.28
2018-06-27T02:26:45.207Z,94567.88
2018-06-27T02:29:15.934Z,94565.45
2018-06-27T02:31:46.402Z,94565.02
2018-06-27T02:34:17.658Z,94564.30
2018-06-27T02:36:47.786Z,94566.02
2018-06-27T02:39:18.287Z,94570.00
2018-06-27T02:41:48.698Z,94582.24
2018-06-27T02:44:20.158Z,94570.61
2018-06-27T02:46:50.248Z,94568.25
2018-06-27T02:49:20.751Z,94567.94
2018-06-27T02:51:51.078Z,94564.11
2018-06-27T02:54:21.634Z,94563.67
2018-06-27T02:56:51.905Z,94564.06
2018-06-27T02:59:22.505Z,94564.05
2018-06-27T03:01:53.283Z,94561.81
2018-06-27T03:04:24.106Z,94560.70
2018-06-27T03:06:54.377Z,94559.14
2018-06-27T03:09:24.898Z,94560.19
2018-06-27T03:11:55.326Z,94557.70
2018-06-27T03:14:26.047Z,94551.91
2018-06-27T03:16:56.183Z,94552.80
2018-06-27T03:19:26.613Z,94557.91
2018-06-27T03:21:56.983Z,94553.49
2018-06-27T03:24:28.424Z,94557.57
2018-06-27T03:26:58.758Z,94554.08
2018-06-27T03:29:29.273Z,94556.38
2018-06-27T03:31:59.722Z,94555.06
2018-06-27T03:34:31.365Z,94557.64
2018-06-27T03:37:02.037Z,94551.05
2018-06-27T03:39:32.451Z,94550.47
2018-06-27T03:42:02.865Z,94548.25
2018-06-27T03:44:34.300Z,94545.77
2018-06-27T03:47:04.932Z,94552.05
2018-06-27T03:49:34.733Z,94549.91
2018-06-27T03:52:04.475Z,94544.63
2018-06-27T03:54:35.022Z,94546.09
2018-06-27T03:57:04.724Z,94543.52
2018-06-27T03:59:34.584Z,94545.58
2018-06-27T04:02:04.358Z,94537.80
2018-06-27T04:04:34.077Z,94541.77
2018-06-27T04:07:03.892Z,94538.36
2018-06-27T04:09:33.479Z,94535.00
2018-06-27T04:12:03.166Z,94538.51
2018-06-27T04:14:33.074Z,94547.81
2018-06-27T04:17:03.266Z,94543.13
2018-06-27T04:19:33.702Z,94544.34
2018-06-27T04:22:04.677Z,94551.37
2018-06-27T04:24:36.247Z,94549.91
2018-06-27T04:27:06.883Z,94557.18
2018-06-27T04:29:37.549Z,94552.40
2018-06-27T04:32:07.951Z,94553.50
2018-06-27T04:34:39.079Z,94550.35
2018-06-27T04:37:09.657Z,94555.09
2018-06-27T04:39:40.073Z,94550.84
2018-06-27T04:42:09.853Z,94548.18
2018-06-27T04:44:39.988Z,94552.25
2018-06-27T04:47:09.714Z,94551.29
2018-06-27T04:49:39.566Z,94550.73
2018-06-27T04:52:09.423Z,94543.13
2018-06-27T04:54:39.274Z,94543.87
2018-06-27T04:57:09.056Z,94538.88
2018-06-27T04:59:38.846Z,94539.54
2018-06-27T05:02:08.595Z,94540.97
2018-06-27T05:04:38.297Z,94538.64
2018-06-27T05:07:08.214Z,94536.81
2018-06-27T05:09:37.860Z,94541.42
2018-06-27T05:12:07.794Z,94537.73
2018-06-27T05:14:37.547Z,94535.33
2018-06-27T05:17:07.344Z,94538.94
2018-06-27T05:19:42.450Z,94529.90
2018-06-27T05:22:13.081Z,94546.74
2018-06-27T05:24:43.186Z,94540.72
2018-06-27T05:27:12.996Z,94543.00
2018-06-27T05:29:42.755Z,94545.25
2018-06-27T05:32:12.451Z,94536.78
2018-06-27T05:34:42.260Z,94533.55
2018-06-27T05:37:11.987Z,94535.47
2018-06-27T05:39:41.711Z,94543.33
2018-06-27T05:42:11.476Z,94532.52
2018-06-27T05:44:41.298Z,94542.17
2018-06-27T05:47:11.036Z,94543.05
2018-06-27T05:49:40.882Z,94544.97
2018-06-27T05:52:10.534Z,94556.69
2018-06-27T05:54:40.704Z,94561.92
2018-06-27T05:57:11.086Z,94560.58
2018-06-27T05:59:41.573Z,94562.51
2018-06-27T06:02:12.023Z,94557.70
2018-06-27T06:04:42.976Z,94566.76
2018-06-27T06:07:13.296Z,94560.55
2018-06-27T06:09:43.590Z,94562.59
2018-06-27T06:12:14.034Z,94565.28
2018-06-27T06:14:44.690Z,94564.51
2018-06-27T06:17:15.173Z,94563.00
2018-06-27T06:19:45.628Z,94558.31
2018-06-27T06:22:16.230Z,94557.12
2018-06-27T06:24:47.376Z,94549.76
2018-06-27T06:27:17.905Z,94556.98
2018-06-27T06:29:48.336Z,94548.17
2018-06-27T06:32:19.004Z,94545.55
2018-06-27T06:34:50.119Z,94546.20
2018-06-27T06:37:20.396Z,94541.83
2018-06-27T06:39:51.002Z,94545.67
2018-06-27T06:42:21.474Z,94545.16
2018-06-27T06:44:52.821Z,94539.41
2018-06-27T06:47:22.926Z,94536.27
2018-06-27T06:49:53.397Z,94531.83
2018-06-27T06:52:23.598Z,94530.95
2018-06-27T06:54:53.968Z,94538.15
2018-06-27T06:57:24.454Z,94530.08
2018-06-27T06:59:54.654Z,94526.44
2018-06-27T07:02:24.839Z,94521.80
2018-06-27T07:04:56.284Z,94531.46
2018-06-27T07:07:26.686Z,94521.53
2018-06-27T07:09:57.250Z,94518.75
2018-06-27T07:12:27.613Z,94513.76
2018-06-27T07:14:58.549Z,94507.59
2018-06-27T07:17:29.210Z,94506.33
2018-06-27T07:19:58.946Z,94502.27
2018-06-27T07:22:29.127Z,94501.35
2018-06-27T07:24:59.119Z,94500.84
2018-06-27T07:27:29.013Z,94495.73
2018-06-27T07:29:58.852Z,94491.70
2018-06-27T07:32:28.679Z,94485.92
2018-06-27T07:34:58.937Z,94481.60
2018-06-27T07:37:29.202Z,94485.20
2018-06-27T07:39:59.652Z,94473.00
2018-06-27T07:42:30.107Z,94490.87
2018-06-27T07:45:00.831Z,94470.14
2018-06-27T07:47:30.636Z,94474.48
2018-06-27T07:50:00.488Z,94475.81
2018-06-27T07:52:30.405Z,94466.39
2018-06-27T07:55:00.115Z,94470.70
2018-06-27T07:57:29.904Z,94467.17
2018-06-27T07:59:59.659Z,94461.95
2018-06-27T08:02:29.544Z,94458.81
2018-06-27T08:04:59.406Z,94450.61
2018-06-27T08:07:29.258Z,94456.14
2018-06-27T08:09:59.045Z,94454.57
2018-06-27T08:12:28.941Z,94453.97
2018-06-27T08:14:58.707Z,94457.86
2018-06-27T08:17:28.572Z,94462.41
2018-06-27T08:19:58.197Z,94451.78
2018-06-27T08:22:28.006Z,94451.98
2018-06-27T08:24:58.195Z,94443.08
2018-06-27T08:27:28.011Z,94444.01
2018-06-27T08:29:57.782Z,94445.54
2018-06-27T08:32:27.572Z,94440.30
2018-06-27T08:34:57.200Z,94441.23
2018-06-27T08:37:26.839Z,94439.09
2018-06-27T08:39:56.739Z,94434.30
2018-06-27T08:42:26.486Z,94438.53
2018-06-27T08:44:56.294Z,94425.48
2018-06-27T08:47:26.154Z,94435.55
2018-06-27T08:49:55.913Z,94438.30
2018-06-27T08:52:25.793Z,94429.91
2018-06-27T08:54:55.617Z,94427.84
2018-06-27T08:57:25.467Z,94430.82
2018-06-27T08:59:55.422Z,94431.64
2018-06-27T09:02:25.315Z,94437.31
2018-06-27T09:04:55.172Z,94435.55
2018-06-27T09:07:24.992Z,94436.63
2018-06-27T09:09:54.854Z,94437.52
2018-06-27T09:12:24.560Z,94439.79
2018-06-27T09:14:54.375Z,94438.80
2018-06-27T09:17:24.239Z,94441.97
2018-06-27T09:19:54.160Z,94442.52
2018-06-27T09:22:23.954Z,94446.08
2018-06-27T09:24:53.822Z,94444.47
2018-06-27T09:27:24.219Z,94442.25
2018-06-27T09:30:57.011Z,94441.79
2018-06-27T09:33:26.860Z,94439.69
2018-06-27T09:35:56.667Z,94442.27
2018-06-27T09:38:26.525Z,94439.46
2018-06-27T09:40:56.338Z,94435.78
2018-06-27T09:43:26.183Z,94437.33
2018-06-27T09:45:56.118Z,94436.59
2018-06-27T09:48:25.918Z,94441.89
2018-06-27T09:50:55.778Z,94440.90
2018-06-27T09:53:25.573Z,94439.03
2018-06-27T09:55:55.484Z,94445.33
2018-06-27T09:58:25.288Z,94441.44
2018-06-27T10:00:55.174Z,94433.17
2018-06-27T10:03:24.982Z,94439.33
2018-06-27T10:05:54.788Z,94436.25
2018-06-27T10:08:24.535Z,94441.34
2018-06-27T10:10:54.436Z,94436.41
2018-06-27T10:13:24.134Z,94440.66
2018-06-27T10:15:53.985Z,94437.09
2018-06-27T10:18:23.665Z,94438.14
2018-06-27T10:20:53.663Z,94444.17
2018-06-27T10:23:23.634Z,94441.55
2018-06-27T10:25:53.452Z,94441.47
2018-06-27T10:28:23.661Z,94441.45
2018-06-27T10:30:53.590Z,94443.52
2018-06-27T10:33:23.536Z,94436.37
2018-06-27T10:35:53.341Z,94447.66
2018-06-27T10:38:23.207Z,94436.55
2018-06-27T10:40:53.129Z,94445.74
2018-06-27T10:43:23.045Z,94438.39
2018-06-27T10:45:52.869Z,94439.13
2018-06-27T10:48:22.793Z,94436.16
2018-06-27T10:50:52.846Z,94440.65
2018-06-27T10:53:22.709Z,94431.93
2018-06-27T10:55:52.676Z,94435.93
2018-06-27T10:58:22.600Z,94434.42
2018-06-27T11:00:52.493Z,94436.73
2018-06-27T11:03:22.444Z,94431.27
2018-06-27T11:11:32.376Z,94421.67
2018-06-27T11:14:02.217Z,94419.17
2018-06-27T11:16:32.272Z,94414.74
2018-06-27T11:19:02.195Z,94407.77
2018-06-27T11:21:33.292Z,94407.52
2018-06-27T11:24:03.050Z,94405.27
2018-06-27T11:26:32.796Z,94405.41
2018-06-27T11:29:03.240Z,94401.36
2018-06-27T11:31:34.084Z,94405.23
2018-06-27T11:34:03.855Z,94398.75
2018-06-27T11:36:33.881Z,94410.58
2018-06-27T11:39:04.083Z,94406.90
2018-06-27T11:41:34.701Z,94410.97
2018-06-27T11:44:04.556Z,94408.52
2018-06-27T11:46:34.507Z,94408.80
2018-06-27T11:49:06.479Z,94409.97
2018-06-27T11:51:37.142Z,94413.10
2018-06-27T11:54:07.010Z,94418.20
2018-06-27T11:56:36.971Z,94417.37
2018-06-27T11:59:06.949Z,94415.96
2018-06-27T12:01:37.665Z,94423.67
2018-06-27T12:04:07.590Z,94425.48
2018-06-27T12:06:38.049Z,94424.59
2018-06-27T12:09:10.863Z,94426.64
2018-06-27T12:11:40.856Z,94423.00
2018-06-27T12:14:10.688Z,94425.14
2018-06-27T12:16:40.563Z,94432.44
2018-06-27T12:19:10.340Z,94430.67
2018-06-27T12:21:40.205Z,94428.40
2018-06-27T12:24:33.010Z,94430.56
2018-06-27T12:27:02.818Z,94426.11
2018-06-27T12:29:32.755Z,94455.22
2018-06-27T12:32:03.807Z,94427.60
2018-06-27T12:34:33.715Z,94435.08
2018-06-27T12:37:03.688Z,94438.09
2018-06-27T12:39:34.525Z,94442.08
2018-06-27T12:42:04.254Z,94435.16
2018-06-27T12:44:34.093Z,94434.08
2018-06-27T12:47:04.088Z,94436.05
2018-06-27T12:49:35.726Z,94429.91
2018-06-27T12:52:05.660Z,94427.58
2018-06-27T12:54:35.564Z,94433.52
2018-06-27T12:57:05.399Z,94433.73
2018-06-27T12:59:35.140Z,94429.52
2018-06-27T13:02:05.123Z,94421.34
2018-06-27T13:04:34.864Z,94422.18
2018-06-27T13:07:04.814Z,94427.50
2018-06-27T13:09:34.681Z,94418.42
2018-06-27T13:12:04.632Z,94415.97
2018-06-27T13:14:34.548Z,94420.69
2018-06-27T13:17:04.364Z,94409.27
2018-06-27T13:19:34.143Z,94407.80
2018-06-27T13:22:03.955Z,94404.76
2018-06-27T13:24:35.066Z,94406.02
2018-06-27T13:27:05.053Z,94408.02
2018-06-27T13:29:36.284Z,94393.83
2018-06-27T13:32:06.971Z,94390.57
2018-06-27T13:34:36.884Z,94389.88
2018-06-27T13:37:06.951Z,94389.22
2018-06-27T13:39:36.970Z,94396.34
2018-06-27T13:42:07.458Z,94386.80
2018-06-27T13:44:37.294Z,94380.79
2018-06-27T13:47:07.087Z,94381.39
2018-06-27T13:49:36.930Z,94386.82
2018-06-27T13:52:06.782Z,94384.63
2018-06-27T13:54:36.649Z,94377.59
2018-06-27T13:57:06.532Z,94378.45
2018-06-27T13:59:36.436Z,94378.60
2018-06-27T14:02:06.360Z,94373.92
2018-06-27T14:04:36.236Z,94373.15
2018-06-27T14:07:05.958Z,94368.25
2018-06-27T14:09:35.599Z,94362.83
2018-06-27T14:12:05.496Z,94357.36
2018-06-27T14:14:35.243Z,94355.06
2018-06-27T14:17:05.087Z,94357.95
2018-06-27T14:19:35.017Z,94353.56
2018-06-27T14:22:05.467Z,94358.86
2018-06-27T14:24:40.109Z,94349.98
2018-06-27T14:27:10.022Z,94346.63
2018-06-27T14:29:40.376Z,94356.25
2018-06-27T14:32:10.410Z,94357.14
2018-06-27T14:34:40.279Z,94359.56
2018-06-27T14:37:10.158Z,94353.38
2018-06-27T14:39:39.974Z,94360.94
2018-06-27T14:42:09.885Z,94351.40
2018-06-27T14:44:39.883Z,94350.78
2018-06-27T14:47:09.804Z,94352.70
2018-06-27T14:49:40.183Z,94351.79
2018-06-27T14:52:10.519Z,94347.70
2018-06-27T14:54:40.433Z,94349.58
2018-06-27T14:57:10.263Z,94340.23
2018-06-27T14:59:40.180Z,94340.37
2018-06-27T15:02:10.159Z,94338.31
2018-06-27T15:04:39.995Z,94329.48
2018-06-27T15:07:09.820Z,94335.59
2018-06-27T15:09:39.601Z,94334.72
2018-06-27T15:12:10.689Z,94328.38
2018-06-27T15:14:40.675Z,94328.81
2018-06-27T15:17:10.472Z,94330.17
2018-06-27T15:19:40.371Z,94325.44
2018-06-27T15:22:10.293Z,94329.00
2018-06-27T15:24:40.098Z,94322.39
2018-06-27T15:27:10.021Z,94326.80
2018-06-27T15:29:39.741Z,94326.06
2018-06-27T15:32:10.114Z,94323.95
2018-06-27T15:34:39.978Z,94325.59
2018-06-27T15:37:09.812Z,94330.58
2018-06-27T15:39:39.650Z,94336.97
2018-06-27T15:42:10.012Z,94334.55
2018-06-27T15:44:39.883Z,94339.79
2018-06-27T15:47:09.552Z,94348.11
2018-06-27T15:49:39.276Z,94357.17
2018-06-27T15:52:09.115Z,94358.03
2018-06-27T15:54:39.526Z,94356.06
2018-06-27T15:57:09.387Z,94355.19
2018-06-27T15:59:41.905Z,94366.19
2018-06-27T16:02:12.881Z,94369.92
2018-06-27T16:04:43.502Z,94372.77
2018-06-27T16:07:13.316Z,94379.25
2018-06-27T16:09:43.152Z,94381.88
2018-06-27T16:12:14.125Z,94380.09
2018-06-27T16:14:44.090Z,94385.50
2018-06-27T16:17:14.043Z,94378.82
2018-06-27T16:19:43.965Z,94389.06
2018-06-27T16:22:14.250Z,94383.89
2018-06-27T16:24:43.984Z,94379.50
2018-06-27T16:27:13.807Z,94389.11
2018-06-27T16:29:43.512Z,94396.86
2018-06-27T16:32:13.754Z,94396.02
2018-06-27T16:34:43.590Z,94400.93
2018-06-27T16:37:13.534Z,94403.14
2018-06-27T16:39:43.294Z,94406.33
2018-06-27T16:42:13.174Z,94403.80
2018-06-27T16:44:43.225Z,94409.30
2018-06-27T16:47:13.564Z,94413.38
2018-06-27T16:49:43.323Z,94412.44
2018-06-27T16:52:13.907Z,94413.94
2018-06-27T16:54:43.721Z,94410.77
2018-06-27T16:57:13.499Z,94405.12
2018-06-27T16:59:43.522Z,94415.40
2018-06-27T17:02:13.288Z,94417.00
2018-06-27T17:04:43.151Z,94410.56
2018-06-27T17:07:12.999Z,94406.23
2018-06-27T17:09:42.839Z,94410.27
2018-06-27T17:12:12.558Z,94409.91
2018-06-27T17:14:42.513Z,94407.13
2018-06-27T17:17:12.341Z,94410.81
2018-06-27T17:19:42.312Z,94407.14
2018-06-27T17:22:12.266Z,94405.52
2018-06-27T17:24:41.931Z,94414.08
2018-06-27T17:27:11.735Z,94418.14
2018-06-27T17:29:41.630Z,94417.39
2018-06-27T17:32:11.562Z,94419.09
2018-06-27T17:34:41.617Z,94421.89
2018-06-27T17:37:11.515Z,94421.37
2018-06-27T17:39:41.619Z,94416.20
2018-06-27T17:42:11.436Z,94417.59
2018-06-27T17:44:41.383Z,94422.72
2018-06-27T17:47:11.129Z,94423.39
2018-06-27T17:49:40.921Z,94422.66
2018-06-27T17:52:10.817Z,94423.77
2018-06-27T17:54:40.582Z,94422.10
2018-06-27T17:57:10.450Z,94411.00
2018-06-27T17:59:40.151Z,94407.42
2018-06-27T18:02:10.042Z,94402.45
2018-06-27T18:04:39.849Z,94405.03
2018-06-27T18:07:09.840Z,94391.63
2018-06-27T18:09:39.610Z,94407.10
2018-06-27T18:12:09.529Z,94411.98
2018-06-27T18:14:39.440Z,94414.34
2018-06-27T18:17:09.381Z,94406.34
2018-06-27T18:19:39.126Z,94407.86
2018-06-27T18:22:08.822Z,94407.92
2018-06-27T18:24:38.626Z,94409.66
2018-06-27T18:27:08.555Z,94413.06
2018-06-27T18:29:38.319Z,94411.42
2018-06-27T18:32:08.253Z,94413.13
2018-06-27T18:34:38.100Z,94413.63
2018-06-27T18:37:08.444Z,94406.22
2018-06-27T18:39:38.289Z,94412.73
2018-06-27T18:42:07.908Z,94411.16
2018-06-27T18:44:37.730Z,94415.19
2018-06-27T18:47:07.705Z,94418.11
2018-06-27T18:49:37.456Z,94423.21
2018-06-27T18:52:07.396Z,94424.00
2018-06-27T18:54:37.234Z,94428.20
2018-06-27T18:57:07.227Z,94427.59
2018-06-27T18:59:37.059Z,94428.30
2018-06-27T19:02:06.975Z,94428.87
2018-06-27T19:04:36.719Z,94429.72
2018-06-27T19:07:06.860Z,94419.30
2018-06-27T19:09:36.595Z,94433.00
2018-06-27T19:12:06.427Z,94431.88
2018-06-27T19:14:36.311Z,94429.62
2018-06-27T19:17:05.945Z,94430.48
2018-06-27T19:19:35.934Z,94430.97
2018-06-27T19:22:05.902Z,94441.77
2018-06-27T19:24:35.723Z,94437.59
2018-06-27T19:27:05.743Z,94441.39
2018-06-27T19:29:35.521Z,94434.73
2018-06-27T19:32:05.387Z,94434.64
2018-06-27T19:34:35.200Z,94439.94
2018-06-27T19:37:05.065Z,94440.50
2018-06-27T19:39:37.897Z,94433.98
2018-06-27T19:42:05.400Z,94429.00
2018-06-27T19:44:36.110Z,94428.34
2018-06-27T19:47:05.993Z,94436.81
2018-06-27T19:49:35.759Z,94435.11
2018-06-27T19:52:06.255Z,94434.19
2018-06-27T19:54:36.038Z,94423.95
2018-06-27T19:57:05.969Z,94418.88
2018-06-27T19:59:35.824Z,94420.88
2018-06-27T20:02:05.710Z,94423.34
2018-06-27T20:04:35.612Z,94419.40
2018-06-27T20:07:05.394Z,94416.12
2018-06-27T20:09:35.202Z,94411.67
2018-06-27T20:12:05.139Z,94408.19
2018-06-27T20:14:34.977Z,94412.23
2018-06-27T20:17:04.711Z,94410.50
2018-06-27T20:19:34.532Z,94407.17
2018-06-27T20:22:04.533Z,94405.55
2018-06-27T20:24:34.166Z,94406.50
2018-06-27T20:27:04.115Z,94408.28
2018-06-27T20:29:33.946Z,94400.63
2018-06-27T20:32:05.629Z,94408.75
2018-06-27T20:34:35.475Z,94403.43
2018-06-27T20:37:05.511Z,94398.80
2018-06-27T20:39:36.369Z,94408.95
2018-06-27T20:42:08.423Z,94403.98
2018-06-27T20:44:38.305Z,94408.79
2018-06-27T20:47:08.143Z,94407.08
2018-06-27T20:49:37.942Z,94390.38
2018-06-27T20:52:08.500Z,94394.84
2018-06-27T20:54:38.297Z,94394.55
2018-06-27T20:57:08.125Z,94399.36
2018-06-27T20:59:37.984Z,94393.81
2018-06-27T21:02:07.780Z,94392.09
2018-06-27T21:04:37.608Z,94392.65
2018-06-27T21:07:07.771Z,94395.19
2018-06-27T21:09:37.490Z,94390.83
2018-06-27T21:12:07.289Z,94386.45
2018-06-27T21:14:37.148Z,94386.25
2018-06-27T21:17:07.076Z,94391.51
2018-06-27T21:19:36.972Z,94391.18
2018-06-27T21:22:06.853Z,94384.18
2018-06-27T21:24:36.642Z,94378.28
2018-06-27T21:27:06.677Z,94376.23
2018-06-27T21:29:36.336Z,94377.38
2018-06-27T21:32:06.335Z,94368.24
2018-06-27T21:34:36.111Z,94360.91
2018-06-27T21:37:05.848Z,94360.42
2018-06-27T21:39:35.672Z,94349.50
2018-06-27T21:42:05.439Z,94350.64
2018-06-27T21:44:35.419Z,94358.11
2018-06-27T21:47:05.261Z,94350.47
2018-06-27T21:49:34.945Z,94345.42
2018-06-27T21:52:04.815Z,94347.28
2018-06-27T21:54:34.469Z,94332.36
2018-06-27T21:57:04.320Z,94322.71
2018-06-27T21:59:33.994Z,94326.05
2018-06-27T22:02:04.231Z,94330.63
2018-06-27T22:04:34.059Z,94320.17
2018-06-27T22:07:03.852Z,94314.61
2018-06-27T22:09:33.661Z,94313.48
2018-06-27T22:12:03.273Z,94302.83
2018-06-27T22:14:33.069Z,94304.08
2018-06-27T22:17:02.849Z,94307.11
2018-06-27T22:19:32.726Z,94311.34
2018-06-27T22:22:02.406Z,94313.75
2018-06-27T22:24:32.196Z,94306.27
2018-06-27T22:27:01.956Z,94302.30
2018-06-27T22:29:31.811Z,94304.36
2018-06-27T22:32:01.634Z,94293.70
2018-06-27T22:34:31.382Z,94296.47
2018-06-27T22:37:01.091Z,94294.14
2018-06-27T22:39:30.906Z,94290.23
2018-06-27T22:42:00.597Z,94280.67
2018-06-27T22:44:30.458Z,94274.75
2018-06-27T22:47:00.314Z,94271.64
2018-06-27T22:49:30.078Z,94260.99
2018-06-27T22:51:59.826Z,94261.73
2018-06-27T22:54:29.651Z,94263.40
2018-06-27T22:56:59.565Z,94252.22
2018-06-27T22:59:29.386Z,94246.16
2018-06-27T23:01:59.251Z,94248.38
2018-06-27T23:04:29.039Z,94250.18
2018-06-27T23:06:58.747Z,94247.88
2018-06-27T23:09:28.551Z,94255.80
2018-06-27T23:11:58.286Z,94247.91
2018-06-27T23:14:27.957Z,94244.57
2018-06-27T23:16:57.699Z,94246.42
2018-06-27T23:19:27.627Z,94241.94
2018-06-27T23:21:57.341Z,94243.69
2018-06-27T23:24:27.098Z,94246.47
2018-06-27T23:26:56.809Z,94244.31
2018-06-27T23:29:26.611Z,94251.53
2018-06-27T23:31:56.386Z,94247.91
2018-06-27T23:34:26.226Z,94236.42
2018-06-27T23:36:56.047Z,94229.89
2018-06-27T23:39:25.787Z,94229.77
2018-06-27T23:41:55.520Z,94230.67
2018-06-27T23:44:25.339Z,94239.37
2018-06-27T23:46:55.018Z,94247.85
2018-06-27T23:49:25.107Z,94261.03
2018-06-27T23:51:54.846Z,94258.83
2018-06-27T23:54:24.634Z,94256.56
2018-06-27T23:56:54.261Z,94238.74
2018-06-27T23:59:24.058Z,94242.28
